Time,TemperatureF,DewpointF,PressureIn,WindDirection,WindDirectionDegrees,WindSpeedMPH,WindSpeedGustMPH,Humidity,HourlyPrecipIn,Conditions,Clouds,dailyrainin,SoftwareType,DateUTC
2013-01-29 00:00:00,74.1,65.0,30.12,SSE,157,5.8,5.8,67,0.00,,,-99.99,Homeseer,2013-01-29 05:00:00,
2013-01-29 00:10:00,73.9,64.8,30.12,SE,135,6.7,7.2,67,0.00,,,-99.99,Homeseer,2013-01-29 05:10:00,
2013-01-29 00:20:00,74.1,64.6,30.09,SSE,157,6.9,7.8,66,0.00,,,-99.99,Homeseer,2013-01-29 05:20:00,
2013-01-29 00:30:00,74.1,64.6,30.09,ESE,112,7.2,10.1,66,0.00,,,-99.99,Homeseer,2013-01-29 05:30:00,
2013-01-29 00:40:00,73.9,65.1,30.09,SSE,157,6.3,6.3,68,0.00,,,-99.99,Homeseer,2013-01-29 05:40:00,
2013-01-29 00:50:00,73.9,65.1,30.09,ESE,112,4.5,6.0,68,0.00,,,-99.99,Homeseer,2013-01-29 05:50:00,
2013-01-29 01:00:00,73.8,64.3,30.09,SE,135,4.7,5.8,66,0.00,,,-99.99,Homeseer,2013-01-29 06:00:00,
2013-01-29 01:10:00,73.8,64.3,30.09,SSE,157,6.9,6.9,66,0.00,,,-99.99,Homeseer,2013-01-29 06:10:00,
2013-01-29 01:20:00,73.8,64.3,30.09,SE,135,7.6,8.1,66,0.00,,,-99.99,Homeseer,2013-01-29 06:20:00,
2013-01-29 01:30:00,73.8,64.3,30.09,SE,135,5.6,8.1,66,0.00,,,-99.99,Homeseer,2013-01-29 06:30:00,
2013-01-29 01:40:00,73.8,64.3,30.09,South,180,6.9,6.9,66,0.00,,,-99.99,Homeseer,2013-01-29 06:40:00,
2013-01-29 01:50:00,73.8,64.0,30.06,SSE,157,4.5,5.4,65,0.00,,,-99.99,Homeseer,2013-01-29 06:50:00,
2013-01-29 02:00:00,73.8,64.3,30.06,North,0,4.7,4.7,66,0.00,,,-99.99,Homeseer,2013-01-29 07:00:00,
2013-01-29 02:10:00,73.6,64.2,30.06,ESE,112,4.9,6.7,66,0.00,,,-99.99,Homeseer,2013-01-29 07:10:00,
2013-01-29 02:20:00,73.6,64.2,30.06,SE,135,6.0,6.0,66,0.00,,,-99.99,Homeseer,2013-01-29 07:20:00,
2013-01-29 02:30:00,73.6,65.1,30.06,North,0,6.0,6.0,69,0.00,,,-99.99,Homeseer,2013-01-29 07:30:00,
2013-01-29 02:40:00,73.4,64.6,30.06,East,90,3.8,4.9,68,0.00,,,-99.99,Homeseer,2013-01-29 07:40:00,
2013-01-29 02:50:00,73.4,64.6,30.06,SSE,157,4.9,4.9,68,0.00,,,-99.99,Homeseer,2013-01-29 07:50:00,
2013-01-29 03:00:00,73.4,64.0,30.06,West,270,3.6,6.3,66,0.00,,,-99.99,Homeseer,2013-01-29 08:00:00,
2013-01-29 03:10:00,73.4,64.3,30.06,SSE,157,3.4,3.4,67,0.00,,,-99.99,Homeseer,2013-01-29 08:10:00,
2013-01-29 03:20:00,73.4,64.0,30.06,SSE,157,4.7,5.6,66,0.00,,,-99.99,Homeseer,2013-01-29 08:20:00,
2013-01-29 03:30:00,73.4,64.3,30.06,North,0,3.8,3.8,67,0.00,,,-99.99,Homeseer,2013-01-29 08:30:00,
2013-01-29 03:40:00,73.4,64.6,30.06,SSE,157,4.3,7.8,68,0.00,,,-99.99,Homeseer,2013-01-29 08:40:00,
2013-01-29 03:50:00,73.2,64.4,30.06,SE,135,4.5,7.4,68,0.00,,,-99.99,Homeseer,2013-01-29 08:50:00,
2013-01-29 04:00:00,73.2,64.8,30.06,SSE,157,5.6,5.8,69,0.00,,,-99.99,Homeseer,2013-01-29 09:00:00,
2013-01-29 04:10:00,73.2,64.4,30.06,South,180,2.2,2.2,68,0.00,,,-99.99,Homeseer,2013-01-29 09:10:00,
2013-01-29 04:20:00,73.2,64.1,30.06,North,0,2.9,4.3,67,0.00,,,-99.99,Homeseer,2013-01-29 09:20:00,
2013-01-29 04:30:00,73.2,64.1,30.06,South,180,5.8,5.8,67,0.00,,,-99.99,Homeseer,2013-01-29 09:30:00,
2013-01-29 04:40:00,73.2,64.8,30.06,ESE,112,5.6,6.3,69,0.00,,,-99.99,Homeseer,2013-01-29 09:40:00,
2013-01-29 04:50:00,73.0,64.6,30.06,SE,135,3.4,3.4,69,0.00,,,-99.99,Homeseer,2013-01-29 09:50:00,
2013-01-29 05:00:00,73.0,64.9,30.06,North,0,3.8,3.8,70,0.00,,,-99.99,Homeseer,2013-01-29 10:00:00,
2013-01-29 05:10:00,72.9,64.8,30.06,South,180,5.4,5.4,70,0.00,,,-99.99,Homeseer,2013-01-29 10:10:00,
2013-01-29 05:20:00,72.9,65.4,30.06,East,90,4.7,4.7,72,0.00,,,-99.99,Homeseer,2013-01-29 10:20:00,
2013-01-29 05:30:00,72.7,65.5,30.06,SSE,157,5.6,7.2,73,0.00,,,-99.99,Homeseer,2013-01-29 10:30:00,
2013-01-29 05:40:00,72.7,67.0,30.06,SSE,157,5.6,5.6,78,0.00,,,-99.99,Homeseer,2013-01-29 10:40:00,
2013-01-29 05:50:00,72.9,67.5,30.06,SE,135,3.1,3.4,79,0.00,,,-99.99,Homeseer,2013-01-29 10:50:00,
2013-01-29 06:00:00,72.7,67.0,30.06,SSE,157,4.9,6.0,78,0.00,,,-99.99,Homeseer,2013-01-29 11:00:00,
2013-01-29 06:10:00,72.7,66.7,30.06,SSE,157,6.3,6.3,77,0.00,,,-99.99,Homeseer,2013-01-29 11:10:00,
2013-01-29 06:20:00,72.7,66.7,30.06,North,0,3.1,3.1,77,0.00,,,-99.99,Homeseer,2013-01-29 11:20:00,
2013-01-29 06:30:00,72.7,67.3,30.06,SE,135,4.9,4.9,79,0.00,,,-99.99,Homeseer,2013-01-29 11:30:00,
2013-01-29 06:40:00,72.7,67.6,30.06,North,0,4.3,4.3,80,0.00,,,-99.99,Homeseer,2013-01-29 11:40:00,
2013-01-29 06:50:00,72.5,67.4,30.09,South,180,3.4,6.0,80,0.00,,,-99.99,Homeseer,2013-01-29 11:50:00,
2013-01-29 07:00:00,72.7,67.6,30.09,SW,225,6.3,6.3,80,0.00,,,-99.99,Homeseer,2013-01-29 12:00:00,
2013-01-29 07:10:00,72.5,67.4,30.09,SSE,157,2.7,3.8,80,0.00,,,-99.99,Homeseer,2013-01-29 12:10:00,
2013-01-29 07:20:00,72.7,68.1,30.09,SSE,157,3.8,3.8,82,0.00,,,-99.99,Homeseer,2013-01-29 12:20:00,
2013-01-29 07:30:00,72.7,68.1,30.09,North,0,4.0,4.0,82,0.00,,,-99.99,Homeseer,2013-01-29 12:30:00,
2013-01-29 07:40:00,72.9,68.3,30.09,South,180,3.8,3.8,82,0.00,,,-99.99,Homeseer,2013-01-29 12:40:00,
2013-01-29 07:50:00,73.0,68.4,30.09,ENE,67,3.6,3.6,82,0.00,,,-99.99,Homeseer,2013-01-29 12:50:00,
2013-01-29 08:00:00,73.2,68.6,30.09,North,0,2.7,2.9,82,0.00,,,-99.99,Homeseer,2013-01-29 13:00:00,
2013-01-29 08:10:00,73.6,69.0,30.09,South,180,3.1,4.7,82,0.00,,,-99.99,Homeseer,2013-01-29 13:10:00,
2013-01-29 08:20:00,73.8,68.9,30.09,SSE,157,3.1,3.1,81,0.00,,,-99.99,Homeseer,2013-01-29 13:20:00,
2013-01-29 08:30:00,74.1,69.2,30.09,North,0,2.9,4.0,81,0.00,,,-99.99,Homeseer,2013-01-29 13:30:00,
2013-01-29 08:40:00,74.1,68.9,30.09,SW,225,2.9,3.6,80,0.00,,,-99.99,Homeseer,2013-01-29 13:40:00,
2013-01-29 08:50:00,74.1,68.9,30.09,SSE,157,4.9,4.9,80,0.00,,,-99.99,Homeseer,2013-01-29 13:50:00,
2013-01-29 09:00:00,74.3,69.4,30.09,North,0,2.5,2.5,81,0.00,,,-99.99,Homeseer,2013-01-29 14:00:00,
2013-01-29 09:10:00,75.0,69.8,30.09,SSE,157,4.9,4.9,80,0.00,,,-99.99,Homeseer,2013-01-29 14:10:00,
2013-01-29 09:20:00,75.9,70.4,30.09,South,180,4.7,5.8,79,0.00,,,-99.99,Homeseer,2013-01-29 14:20:00,
2013-01-29 09:30:00,75.9,69.5,30.09,North,0,3.6,3.6,76,0.00,,,-99.99,Homeseer,2013-01-29 14:30:00,
2013-01-29 09:40:00,76.3,69.6,30.09,North,0,4.0,5.8,75,0.00,,,-99.99,Homeseer,2013-01-29 14:40:00,
2013-01-29 09:50:00,76.8,68.8,30.09,South,180,3.6,3.6,71,0.00,,,-99.99,Homeseer,2013-01-29 14:50:00,
2013-01-29 10:00:00,77.2,69.2,30.09,SSE,157,4.9,4.9,71,0.00,,,-99.99,Homeseer,2013-01-29 15:00:00,
2013-01-29 10:10:00,77.5,69.2,30.09,North,0,4.0,5.4,70,0.00,,,-99.99,Homeseer,2013-01-29 15:10:00,
2013-01-29 10:20:00,77.5,69.2,30.09,North,0,5.4,10.5,70,0.00,,,-99.99,Homeseer,2013-01-29 15:20:00,
2013-01-29 10:30:00,77.5,69.2,30.09,North,0,3.8,4.3,70,0.00,,,-99.99,Homeseer,2013-01-29 15:30:00,
2013-01-29 10:40:00,77.5,68.5,30.09,SSE,157,4.0,4.0,68,0.00,,,-99.99,Homeseer,2013-01-29 15:40:00,
2013-01-29 10:50:00,77.7,69.0,30.09,SE,135,4.5,4.7,69,0.00,,,-99.99,Homeseer,2013-01-29 15:50:00,
2013-01-29 11:00:00,77.7,69.0,30.09,SSE,157,4.0,4.9,69,0.00,,,-99.99,Homeseer,2013-01-29 16:00:00,
2013-01-29 11:10:00,78.1,69.4,30.09,North,0,4.3,4.3,69,0.00,,,-99.99,Homeseer,2013-01-29 16:10:00,
2013-01-29 11:20:00,77.7,69.0,30.09,ESE,112,3.4,5.4,69,0.00,,,-99.99,Homeseer,2013-01-29 16:20:00,
2013-01-29 11:30:00,78.1,69.1,30.09,SSE,157,5.4,6.7,68,0.00,,,-99.99,Homeseer,2013-01-29 16:30:00,
2013-01-29 11:40:00,78.1,69.1,30.09,South,180,3.8,4.9,68,0.00,,,-99.99,Homeseer,2013-01-29 16:40:00,
2013-01-29 11:50:00,78.6,69.2,30.09,North,0,5.6,5.6,67,0.00,,,-99.99,Homeseer,2013-01-29 16:50:00,
2013-01-29 12:00:00,79.0,67.8,30.09,South,180,3.1,3.8,62,0.00,,,-99.99,Homeseer,2013-01-29 17:00:00,
2013-01-29 12:10:00,79.2,67.6,30.09,SSE,157,4.7,4.7,61,0.00,,,-99.99,Homeseer,2013-01-29 17:10:00,
2013-01-29 12:20:00,78.6,67.5,30.06,North,0,3.8,3.8,62,0.00,,,-99.99,Homeseer,2013-01-29 17:20:00,
2013-01-29 12:30:00,78.4,67.3,30.06,North,0,5.6,5.6,62,0.00,,,-99.99,Homeseer,2013-01-29 17:30:00,
2013-01-29 12:40:00,78.4,67.3,30.06,North,0,3.8,6.0,62,0.00,,,-99.99,Homeseer,2013-01-29 17:40:00,
2013-01-29 12:50:00,78.8,67.3,30.06,South,180,4.3,5.4,61,0.00,,,-99.99,Homeseer,2013-01-29 17:50:00,
2013-01-29 13:00:00,79.0,67.5,30.06,South,180,4.9,4.9,61,0.00,,,-99.99,Homeseer,2013-01-29 18:00:00,
2013-01-29 13:10:00,78.4,66.9,30.06,SSE,157,3.1,3.1,61,0.00,,,-99.99,Homeseer,2013-01-29 18:10:00,
2013-01-29 13:20:00,78.1,66.6,30.06,WSW,247,4.3,7.6,61,0.00,,,-99.99,Homeseer,2013-01-29 18:20:00,
2013-01-29 13:30:00,78.1,66.6,30.03,South,180,3.8,6.0,61,0.00,,,-99.99,Homeseer,2013-01-29 18:30:00,
2013-01-29 13:40:00,78.1,67.0,30.03,South,180,5.4,5.4,62,0.00,,,-99.99,Homeseer,2013-01-29 18:40:00,
2013-01-29 13:50:00,77.4,66.0,30.03,SW,225,5.8,5.8,61,0.00,,,-99.99,Homeseer,2013-01-29 18:50:00,
2013-01-29 14:00:00,77.5,66.4,30.03,South,180,3.4,3.4,62,0.00,,,-99.99,Homeseer,2013-01-29 19:00:00,
2013-01-29 14:10:00,77.2,66.1,30.03,North,0,5.8,5.8,62,0.00,,,-99.99,Homeseer,2013-01-29 19:10:00,
2013-01-29 14:20:00,77.5,66.8,30.03,North,0,4.3,5.8,63,0.00,,,-99.99,Homeseer,2013-01-29 19:20:00,
2013-01-29 14:30:00,78.4,67.3,30.03,North,0,4.7,7.4,62,0.00,,,-99.99,Homeseer,2013-01-29 19:30:00,
2013-01-29 14:40:00,78.4,66.9,30.03,SSE,157,4.9,7.4,61,0.00,,,-99.99,Homeseer,2013-01-29 19:40:00,
2013-01-29 14:50:00,78.1,65.9,30.00,South,180,4.3,4.3,59,0.00,,,-99.99,Homeseer,2013-01-29 19:50:00,
2013-01-29 15:00:00,78.1,66.2,30.00,South,180,5.8,5.8,60,0.00,,,-99.99,Homeseer,2013-01-29 20:00:00,
2013-01-29 15:10:00,78.1,66.2,30.00,North,0,4.0,4.5,60,0.00,,,-99.99,Homeseer,2013-01-29 20:10:00,
2013-01-29 15:20:00,77.9,66.1,30.00,SSE,157,4.7,4.7,60,0.00,,,-99.99,Homeseer,2013-01-29 20:20:00,
2013-01-29 15:30:00,77.4,65.6,30.00,North,0,4.0,4.0,60,0.00,,,-99.99,Homeseer,2013-01-29 20:30:00,
2013-01-29 15:40:00,77.9,66.1,30.00,South,180,4.5,7.2,60,0.00,,,-99.99,Homeseer,2013-01-29 20:40:00,
2013-01-29 15:50:00,77.7,66.2,30.00,SSE,157,3.4,4.0,61,0.00,,,-99.99,Homeseer,2013-01-29 20:50:00,
2013-01-29 16:00:00,77.5,65.7,30.00,WSW,247,5.4,5.4,60,0.00,,,-99.99,Homeseer,2013-01-29 21:00:00,
2013-01-29 16:10:00,77.4,66.3,30.00,South,180,4.3,4.3,62,0.00,,,-99.99,Homeseer,2013-01-29 21:10:00,
2013-01-29 16:20:00,77.2,66.1,30.00,SSE,157,3.6,4.0,62,0.00,,,-99.99,Homeseer,2013-01-29 21:20:00,
2013-01-29 16:30:00,76.8,65.8,30.00,South,180,3.1,3.1,62,0.00,,,-99.99,Homeseer,2013-01-29 21:30:00,
2013-01-29 16:40:00,76.6,65.9,30.00,SSE,157,4.3,5.6,63,0.00,,,-99.99,Homeseer,2013-01-29 21:40:00,
2013-01-29 16:50:00,76.5,65.5,30.00,South,180,6.7,7.8,62,0.00,,,-99.99,Homeseer,2013-01-29 21:50:00,
2013-01-29 17:00:00,76.1,64.8,30.00,SSE,157,4.9,4.9,61,0.00,,,-99.99,Homeseer,2013-01-29 22:00:00,
2013-01-29 17:10:00,75.7,64.7,30.00,South,180,4.3,6.5,62,0.00,,,-99.99,Homeseer,2013-01-29 22:10:00,
2013-01-29 17:20:00,75.6,66.4,30.00,SSE,157,4.9,4.9,67,0.00,,,-99.99,Homeseer,2013-01-29 22:20:00,
2013-01-29 17:30:00,75.2,66.3,30.00,SSE,157,4.5,4.5,68,0.00,,,-99.99,Homeseer,2013-01-29 22:30:00,
2013-01-29 17:40:00,75.0,66.5,30.00,North,0,3.6,6.3,69,0.00,,,-99.99,Homeseer,2013-01-29 22:40:00,
2013-01-29 17:50:00,74.7,65.9,30.00,East,90,2.9,3.8,68,0.00,,,-99.99,Homeseer,2013-01-29 22:50:00,
2013-01-29 18:00:00,74.5,65.0,30.03,SSE,157,3.6,3.6,66,0.00,,,-99.99,Homeseer,2013-01-29 23:00:00,
2013-01-29 18:10:00,74.5,64.3,30.03,ESE,112,3.6,6.0,64,0.00,,,-99.99,Homeseer,2013-01-29 23:10:00,
2013-01-29 18:20:00,74.3,64.5,30.03,North,0,5.6,5.6,65,0.00,,,-99.99,Homeseer,2013-01-29 23:20:00,
2013-01-29 18:30:00,74.1,64.3,30.03,North,0,3.8,8.5,65,0.00,,,-99.99,Homeseer,2013-01-29 23:30:00,
2013-01-29 18:40:00,74.1,64.3,30.03,SSE,157,4.0,4.3,65,0.00,,,-99.99,Homeseer,2013-01-29 23:40:00,
2013-01-29 18:50:00,74.1,64.3,30.00,SSE,157,2.9,2.9,65,0.00,,,-99.99,Homeseer,2013-01-29 23:50:00,
2013-01-29 19:00:00,73.9,63.4,30.00,South,180,3.4,3.4,63,0.00,,,-99.99,Homeseer,2013-01-30 00:00:00,
2013-01-29 19:10:00,73.9,63.4,30.00,SE,135,3.8,4.3,63,0.00,,,-99.99,Homeseer,2013-01-30 00:10:00,
2013-01-29 19:20:00,73.9,63.1,30.00,North,0,4.9,4.9,62,0.00,,,-99.99,Homeseer,2013-01-30 00:20:00,
2013-01-29 19:30:00,73.9,63.4,30.00,SSE,157,3.8,4.0,63,0.00,,,-99.99,Homeseer,2013-01-30 00:30:00,
2013-01-29 19:40:00,73.8,63.7,30.00,SE,135,4.0,4.7,64,0.00,,,-99.99,Homeseer,2013-01-30 00:40:00,
2013-01-29 19:50:00,73.8,64.3,30.03,South,180,6.0,6.0,66,0.00,,,-99.99,Homeseer,2013-01-30 00:50:00,
2013-01-29 20:00:00,73.8,64.7,30.03,SSE,157,4.7,4.7,67,0.00,,,-99.99,Homeseer,2013-01-30 01:00:00,
2013-01-29 20:10:00,73.8,65.0,30.03,South,180,3.4,6.3,68,0.00,,,-99.99,Homeseer,2013-01-30 01:10:00,
2013-01-29 20:20:00,73.8,65.0,30.03,SSE,157,6.0,6.0,68,0.00,,,-99.99,Homeseer,2013-01-30 01:20:00,
2013-01-29 20:30:00,73.8,64.7,30.03,SSE,157,5.4,5.4,67,0.00,,,-99.99,Homeseer,2013-01-30 01:30:00,
2013-01-29 20:40:00,73.8,64.7,30.03,East,90,4.9,4.9,67,0.00,,,-99.99,Homeseer,2013-01-30 01:40:00,
2013-01-29 20:50:00,73.8,64.7,30.03,ESE,112,4.5,4.5,67,0.00,,,-99.99,Homeseer,2013-01-30 01:50:00,
2013-01-29 21:00:00,73.6,64.5,30.03,ESE,112,4.9,5.4,67,0.00,,,-99.99,Homeseer,2013-01-30 02:00:00,
2013-01-29 21:10:00,73.8,65.0,30.03,North,0,6.3,6.5,68,0.00,,,-99.99,Homeseer,2013-01-30 02:10:00,
2013-01-29 21:20:00,73.6,64.8,30.03,South,180,6.5,6.5,68,0.00,,,-99.99,Homeseer,2013-01-30 02:20:00,
2013-01-29 21:30:00,73.6,65.1,30.03,SSE,157,7.2,10.3,69,0.00,,,-99.99,Homeseer,2013-01-30 02:30:00,
2013-01-29 21:40:00,73.6,64.8,30.03,North,0,4.5,5.8,68,0.00,,,-99.99,Homeseer,2013-01-30 02:40:00,
2013-01-29 21:50:00,73.6,65.1,30.03,ESE,112,4.9,4.9,69,0.00,,,-99.99,Homeseer,2013-01-30 02:50:00,
2013-01-29 22:00:00,73.6,64.8,30.03,ESE,112,5.8,7.8,68,0.00,,,-99.99,Homeseer,2013-01-30 03:00:00,
2013-01-29 22:10:00,73.4,64.3,30.03,SE,135,8.7,8.7,67,0.00,,,-99.99,Homeseer,2013-01-30 03:10:00,
2013-01-29 22:20:00,73.4,63.6,30.03,SSE,157,7.2,12.8,65,0.00,,,-99.99,Homeseer,2013-01-30 03:20:00,
2013-01-29 22:30:00,73.4,63.6,30.03,SSE,157,8.7,8.7,65,0.00,,,-99.99,Homeseer,2013-01-30 03:30:00,
2013-01-29 22:40:00,73.4,63.3,30.03,North,0,9.0,9.0,64,0.00,,,-99.99,Homeseer,2013-01-30 03:40:00,
2013-01-29 22:50:00,73.4,63.6,30.03,SSE,157,9.0,9.0,65,0.00,,,-99.99,Homeseer,2013-01-30 03:50:00,
2013-01-29 23:00:00,73.2,63.1,30.00,ESE,112,7.2,8.5,64,0.00,,,-99.99,Homeseer,2013-01-30 04:00:00,
2013-01-29 23:10:00,73.2,63.1,30.00,SE,135,7.2,10.7,64,0.00,,,-99.99,Homeseer,2013-01-30 04:10:00,
2013-01-29 23:20:00,73.2,63.1,30.00,SSE,157,6.9,9.6,64,0.00,,,-99.99,Homeseer,2013-01-30 04:20:00,
2013-01-29 23:30:00,73.2,62.8,30.00,SE,135,9.6,9.6,63,0.00,,,-99.99,Homeseer,2013-01-30 04:30:00,
2013-01-29 23:40:00,73.2,62.4,30.00,SE,135,7.4,7.4,62,0.00,,,-99.99,Homeseer,2013-01-30 04:40:00,
2013-01-29 23:50:00,73.2,63.4,30.00,SSE,157,5.6,5.6,65,0.00,,,-99.99,Homeseer,2013-01-30 04:50:00,